sensor_id;sensor_type;location;lat;lon;timestamp;pressure;altitude;pressure_sealevel;temperature;humidity
14041;BME280;7095;51.388;6.196;2022-09-03T00:02:15;53194.94;;;-145.32;65.64
14041;BME280;7095;51.388;6.196;2022-09-03T00:04:52;53220.78;;;-145.32;65.71
14041;BME280;7095;51.388;6.196;2022-09-03T00:07:29;53202.91;;;-145.32;67.24
14041;BME280;7095;51.388;6.196;2022-09-03T00:10:04;53204.88;;;-145.32;66.64
14041;BME280;7095;51.388;6.196;2022-09-03T00:12:40;53169.09;;;-145.32;66.78
14041;BME280;7095;51.388;6.196;2022-09-03T00:15:12;53187.00;;;-145.32;66.74
14041;BME280;7095;51.388;6.196;2022-09-03T00:17:45;53190.97;;;-145.32;67.29
14041;BME280;7095;51.388;6.196;2022-09-03T00:20:18;53208.84;;;-145.32;67.60
14041;BME280;7095;51.388;6.196;2022-09-03T00:22:49;53208.84;;;-145.32;68.64
14041;BME280;7095;51.388;6.196;2022-09-03T00:25:24;53240.66;;;-145.32;69.10
14041;BME280;7095;51.388;6.196;2022-09-03T00:27:56;53179.03;;;-145.32;69.74
14041;BME280;7095;51.388;6.196;2022-09-03T00:30:27;53204.88;;;-145.32;68.66
14041;BME280;7095;51.388;6.196;2022-09-03T00:33:00;53212.84;;;-145.32;68.66
14041;BME280;7095;51.388;6.196;2022-09-03T00:35:36;53204.88;;;-145.32;69.49
14041;BME280;7095;51.388;6.196;2022-09-03T00:38:08;53208.84;;;-145.32;70.69
14041;BME280;7095;51.388;6.196;2022-09-03T00:40:55;53212.84;;;-145.32;72.81
14041;BME280;7095;51.388;6.196;2022-09-03T00:43:41;53204.88;;;-145.32;73.23
14041;BME280;7095;51.388;6.196;2022-09-03T00:46:18;53181.03;;;-145.32;74.00
14041;BME280;7095;51.388;6.196;2022-09-03T00:49:09;53228.75;;;-145.32;78.16
14041;BME280;7095;51.388;6.196;2022-09-03T00:51:46;53190.97;;;-145.32;76.82
14041;BME280;7095;51.388;6.196;2022-09-03T00:54:26;53200.91;;;-145.32;76.99
14041;BME280;7095;51.388;6.196;2022-09-03T00:57:08;53188.97;;;-145.32;77.52
14041;BME280;7095;51.388;6.196;2022-09-03T00:59:44;53206.88;;;-145.32;75.93
14041;BME280;7095;51.388;6.196;2022-09-03T01:02:26;53220.78;;;-145.32;75.69
14041;BME280;7095;51.388;6.196;2022-09-03T01:05:07;53210.84;;;-145.32;75.46
14041;BME280;7095;51.388;6.196;2022-09-03T01:07:43;53202.91;;;-145.32;75.31
14041;BME280;7095;51.388;6.196;2022-09-03T01:10:23;53224.75;;;-145.32;75.46
14041;BME280;7095;51.388;6.196;2022-09-03T01:13:02;53232.72;;;-145.32;75.13
14041;BME280;7095;51.388;6.196;2022-09-03T01:15:44;53232.72;;;-145.32;74.00
14041;BME280;7095;51.388;6.196;2022-09-03T01:18:24;53204.88;;;-145.32;72.27
14041;BME280;7095;51.388;6.196;2022-09-03T01:21:08;53210.84;;;-145.32;70.52
14041;BME280;7095;51.388;6.196;2022-09-03T01:23:51;53234.69;;;-145.32;69.44
14041;BME280;7095;51.388;6.196;2022-09-03T01:29:18;53210.84;;;-145.32;66.90
14041;BME280;7095;51.388;6.196;2022-09-03T01:31:57;53220.78;;;-145.32;66.83
14041;BME280;7095;51.388;6.196;2022-09-03T01:34:38;53202.91;;;-145.32;65.58
14041;BME280;7095;51.388;6.196;2022-09-03T01:37:15;53181.03;;;-145.32;65.48
14041;BME280;7095;51.388;6.196;2022-09-03T01:39:58;53218.81;;;-145.32;65.53
14041;BME280;7095;51.388;6.196;2022-09-03T01:42:38;53226.75;;;-145.32;67.36
14041;BME280;7095;51.388;6.196;2022-09-03T01:45:34;53214.81;;;-145.32;70.28
14041;BME280;7095;51.388;6.196;2022-09-03T01:48:36;53216.81;;;-145.32;71.23
14041;BME280;7095;51.388;6.196;2022-09-03T01:51:15;53228.75;;;-145.32;72.18
14041;BME280;7095;51.388;6.196;2022-09-03T01:54:16;53210.84;;;-145.32;75.12
14041;BME280;7095;51.388;6.196;2022-09-03T01:57:04;53220.78;;;-145.32;74.74
14041;BME280;7095;51.388;6.196;2022-09-03T02:00:00;53214.81;;;-145.32;73.64
14041;BME280;7095;51.388;6.196;2022-09-03T02:02:39;53238.69;;;-145.32;73.85
14041;BME280;7095;51.388;6.196;2022-09-03T02:05:12;53242.66;;;-145.32;73.39
14041;BME280;7095;51.388;6.196;2022-09-03T02:07:46;53248.63;;;-145.32;74.09
14041;BME280;7095;51.388;6.196;2022-09-03T02:10:17;53222.78;;;-145.32;73.95
14041;BME280;7095;51.388;6.196;2022-09-03T02:12:49;53212.84;;;-145.32;73.47
14041;BME280;7095;51.388;6.196;2022-09-03T02:15:22;53248.63;;;-145.32;73.84
14041;BME280;7095;51.388;6.196;2022-09-03T02:17:57;53208.84;;;-145.32;74.09
14041;BME280;7095;51.388;6.196;2022-09-03T02:20:28;53232.72;;;-145.32;73.42
14041;BME280;7095;51.388;6.196;2022-09-03T02:22:58;53244.63;;;-145.32;73.16
14041;BME280;7095;51.388;6.196;2022-09-03T02:25:30;53226.75;;;-145.32;73.07
14041;BME280;7095;51.388;6.196;2022-09-03T02:28:01;53224.75;;;-145.32;73.90
14041;BME280;7095;51.388;6.196;2022-09-03T02:30:35;53238.69;;;-145.32;74.79
14041;BME280;7095;51.388;6.196;2022-09-03T02:33:05;53216.81;;;-145.32;74.91
14041;BME280;7095;51.388;6.196;2022-09-03T02:35:34;53234.69;;;-145.32;75.41
14041;BME280;7095;51.388;6.196;2022-09-03T02:38:14;53224.75;;;-145.32;76.31
14041;BME280;7095;51.388;6.196;2022-09-03T02:40:44;53252.59;;;-145.32;76.55
14041;BME280;7095;51.388;6.196;2022-09-03T02:43:17;53236.69;;;-145.32;77.21
14041;BME280;7095;51.388;6.196;2022-09-03T02:45:54;53250.59;;;-145.32;78.57
14041;BME280;7095;51.388;6.196;2022-09-03T02:48:26;53242.66;;;-145.32;79.68
14041;BME280;7095;51.388;6.196;2022-09-03T02:50:55;53236.69;;;-145.32;81.04
14041;BME280;7095;51.388;6.196;2022-09-03T02:53:24;53224.75;;;-145.32;83.27
14041;BME280;7095;51.388;6.196;2022-09-03T02:55:57;53230.72;;;-145.32;85.98
14041;BME280;7095;51.388;6.196;2022-09-03T02:58:27;53212.84;;;-145.32;87.73
14041;BME280;7095;51.388;6.196;2022-09-03T03:00:57;53252.59;;;-145.32;89.49
14041;BME280;7095;51.388;6.196;2022-09-03T03:03:28;53256.56;;;-145.32;91.45
14041;BME280;7095;51.388;6.196;2022-09-03T03:05:59;53268.50;;;-145.32;92.61
14041;BME280;7095;51.388;6.196;2022-09-03T03:08:28;53268.50;;;-145.32;93.92
14041;BME280;7095;51.388;6.196;2022-09-03T03:11:00;53248.63;;;-145.32;93.17
14041;BME280;7095;51.388;6.196;2022-09-03T03:13:30;53266.50;;;-145.32;93.45
14041;BME280;7095;51.388;6.196;2022-09-03T03:16:00;53260.53;;;-145.32;93.76
14041;BME280;7095;51.388;6.196;2022-09-03T03:18:31;53244.63;;;-145.32;94.67
14041;BME280;7095;51.388;6.196;2022-09-03T03:21:03;53268.50;;;-145.32;95.87
14041;BME280;7095;51.388;6.196;2022-09-03T03:23:33;53236.69;;;-145.32;96.67
14041;BME280;7095;51.388;6.196;2022-09-03T03:26:03;53298.31;;;-145.32;98.07
14041;BME280;7095;51.388;6.196;2022-09-03T03:31:05;53264.53;;;-145.32;100.00
14041;BME280;7095;51.388;6.196;2022-09-03T03:33:36;53292.34;;;-145.32;100.00
14041;BME280;7095;51.388;6.196;2022-09-03T03:36:05;53264.53;;;-145.32;99.82
14041;BME280;7095;51.388;6.196;2022-09-03T03:38:35;53280.41;;;-145.32;100.00
14041;BME280;7095;51.388;6.196;2022-09-03T03:41:08;53262.53;;;-145.32;100.00
14041;BME280;7095;51.388;6.196;2022-09-03T03:43:37;53268.50;;;-145.32;100.00
14041;BME280;7095;51.388;6.196;2022-09-03T03:46:06;53264.53;;;-145.32;100.00
14041;BME280;7095;51.388;6.196;2022-09-03T03:48:37;53262.53;;;-145.32;98.99
14041;BME280;7095;51.388;6.196;2022-09-03T03:51:08;53260.53;;;-145.32;99.40
14041;BME280;7095;51.388;6.196;2022-09-03T03:53:37;53274.47;;;-145.32;99.01
14041;BME280;7095;51.388;6.196;2022-09-03T03:56:08;53276.44;;;-145.32;98.70
14041;BME280;7095;51.388;6.196;2022-09-03T03:58:37;53264.53;;;-145.32;97.96
14041;BME280;7095;51.388;6.196;2022-09-03T04:01:12;53254.59;;;-145.32;97.27
14041;BME280;7095;51.388;6.196;2022-09-03T04:03:42;53246.63;;;-145.32;96.49
14041;BME280;7095;51.388;6.196;2022-09-03T04:06:13;53260.53;;;-145.32;95.38
14041;BME280;7095;51.388;6.196;2022-09-03T04:08:43;53224.75;;;-145.32;94.57
14041;BME280;7095;51.388;6.196;2022-09-03T04:11:14;53272.47;;;-145.32;93.61
14041;BME280;7095;51.388;6.196;2022-09-03T04:13:44;53260.53;;;-145.32;92.24
14041;BME280;7095;51.388;6.196;2022-09-03T04:16:15;53234.69;;;-145.32;91.60
14041;BME280;7095;51.388;6.196;2022-09-03T04:18:47;53236.69;;;-145.32;91.36
14041;BME280;7095;51.388;6.196;2022-09-03T04:21:18;53256.56;;;-145.32;90.85
14041;BME280;7095;51.388;6.196;2022-09-03T04:23:48;53266.50;;;-145.32;90.82
14041;BME280;7095;51.388;6.196;2022-09-03T04:26:19;53232.72;;;-145.32;90.40
14041;BME280;7095;51.388;6.196;2022-09-03T04:28:48;53254.59;;;-145.32;90.43
14041;BME280;7095;51.388;6.196;2022-09-03T04:31:18;53228.75;;;-145.32;89.96
14041;BME280;7095;51.388;6.196;2022-09-03T04:33:48;53220.78;;;-145.32;89.56
14041;BME280;7095;51.388;6.196;2022-09-03T04:36:18;53256.56;;;-145.32;89.46
14041;BME280;7095;51.388;6.196;2022-09-03T04:38:48;53250.59;;;-145.32;88.35
14041;BME280;7095;51.388;6.196;2022-09-03T04:41:20;53230.72;;;-145.32;88.28
14041;BME280;7095;51.388;6.196;2022-09-03T04:43:49;53216.81;;;-145.32;87.66
14041;BME280;7095;51.388;6.196;2022-09-03T04:46:20;53242.66;;;-145.32;88.28
14041;BME280;7095;51.388;6.196;2022-09-03T04:48:53;53244.63;;;-145.32;89.11
14041;BME280;7095;51.388;6.196;2022-09-03T04:51:25;53260.53;;;-145.32;88.82
14041;BME280;7095;51.388;6.196;2022-09-03T04:53:56;53244.63;;;-145.32;88.24
14041;BME280;7095;51.388;6.196;2022-09-03T04:56:28;53254.59;;;-145.32;88.29
14041;BME280;7095;51.388;6.196;2022-09-03T04:58:59;53280.41;;;-145.32;88.17
14041;BME280;7095;51.388;6.196;2022-09-03T05:01:29;53256.56;;;-145.32;88.70
14041;BME280;7095;51.388;6.196;2022-09-03T05:04:01;53250.59;;;-145.32;88.12
14041;BME280;7095;51.388;6.196;2022-09-03T05:06:31;53240.66;;;-145.32;88.10
14041;BME280;7095;51.388;6.196;2022-09-03T05:09:00;53260.53;;;-145.32;87.71
14041;BME280;7095;51.388;6.196;2022-09-03T05:11:29;53254.59;;;-145.32;87.11
14041;BME280;7095;51.388;6.196;2022-09-03T05:13:58;53250.59;;;-145.32;86.42
14041;BME280;7095;51.388;6.196;2022-09-03T05:16:28;53200.91;;;-145.32;86.72
14041;BME280;7095;51.388;6.196;2022-09-03T05:19:00;53272.47;;;-145.32;86.59
14041;BME280;7095;51.388;6.196;2022-09-03T05:21:29;53222.78;;;-145.32;86.27
14041;BME280;7095;51.388;6.196;2022-09-03T05:23:58;53236.69;;;-145.32;86.62
14041;BME280;7095;51.388;6.196;2022-09-03T05:26:29;53254.59;;;-145.32;87.85
14041;BME280;7095;51.388;6.196;2022-09-03T05:29:00;53248.63;;;-145.32;88.08
14041;BME280;7095;51.388;6.196;2022-09-03T05:31:29;53248.63;;;-145.32;88.69
14041;BME280;7095;51.388;6.196;2022-09-03T05:34:01;53232.72;;;-145.32;88.99
14041;BME280;7095;51.388;6.196;2022-09-03T05:36:31;53210.84;;;-145.32;88.72
14041;BME280;7095;51.388;6.196;2022-09-03T05:39:03;53220.78;;;-145.32;88.80
14041;BME280;7095;51.388;6.196;2022-09-03T05:41:32;53240.66;;;-145.32;88.86
14041;BME280;7095;51.388;6.196;2022-09-03T05:44:02;53238.69;;;-145.32;88.49
14041;BME280;7095;51.388;6.196;2022-09-03T05:46:32;53228.75;;;-145.32;88.35
14041;BME280;7095;51.388;6.196;2022-09-03T05:49:05;53232.72;;;-145.32;88.69
14041;BME280;7095;51.388;6.196;2022-09-03T05:51:35;53220.78;;;-145.32;87.95
14041;BME280;7095;51.388;6.196;2022-09-03T05:54:05;53216.81;;;-145.32;87.42
14041;BME280;7095;51.388;6.196;2022-09-03T05:56:37;53204.88;;;-145.32;87.75
14041;BME280;7095;51.388;6.196;2022-09-03T05:59:08;53220.78;;;-145.32;86.00
14041;BME280;7095;51.388;6.196;2022-09-03T06:01:38;53224.75;;;-145.32;84.61
14041;BME280;7095;51.388;6.196;2022-09-03T06:04:17;53234.69;;;-145.32;83.97
14041;BME280;7095;51.388;6.196;2022-09-03T06:06:47;53212.84;;;-145.32;83.78
14041;BME280;7095;51.388;6.196;2022-09-03T06:09:17;53204.88;;;-145.32;82.41
14041;BME280;7095;51.388;6.196;2022-09-03T06:11:47;53204.88;;;-145.32;79.75
14041;BME280;7095;51.388;6.196;2022-09-03T06:14:19;53200.91;;;-145.32;78.45
14041;BME280;7095;51.388;6.196;2022-09-03T06:16:49;53177.06;;;-145.32;77.44
14041;BME280;7095;51.388;6.196;2022-09-03T06:19:21;53206.88;;;-145.32;75.51
14041;BME280;7095;51.388;6.196;2022-09-03T06:21:49;53165.13;;;-145.32;73.61
14041;BME280;7095;51.388;6.196;2022-09-03T06:24:19;53208.84;;;-145.32;71.55
14041;BME280;7095;51.388;6.196;2022-09-03T06:26:54;53177.06;;;-145.32;71.01
14041;BME280;7095;51.388;6.196;2022-09-03T06:29:24;53173.06;;;-145.32;68.69
14041;BME280;7095;51.388;6.196;2022-09-03T06:31:53;53149.22;;;-145.32;66.88
14041;BME280;7095;51.388;6.196;2022-09-03T06:34:24;53173.06;;;-145.32;65.97
14041;BME280;7095;51.388;6.196;2022-09-03T06:36:53;53188.97;;;-145.32;65.55
14041;BME280;7095;51.388;6.196;2022-09-03T06:39:22;53157.19;;;-145.32;64.84
14041;BME280;7095;51.388;6.196;2022-09-03T06:41:51;53141.28;;;-145.32;63.99
14041;BME280;7095;51.388;6.196;2022-09-03T06:44:30;53139.28;;;-145.32;63.75
14041;BME280;7095;51.388;6.196;2022-09-03T06:46:58;53183.00;;;-145.32;63.63
14041;BME280;7095;51.388;6.196;2022-09-03T06:49:29;53161.16;;;-145.32;63.04
14041;BME280;7095;51.388;6.196;2022-09-03T06:51:57;53157.19;;;-145.32;61.52
14041;BME280;7095;51.388;6.196;2022-09-03T06:54:26;53159.16;;;-145.32;60.68
14041;BME280;7095;51.388;6.196;2022-09-03T06:56:54;53153.19;;;-145.32;60.58
14041;BME280;7095;51.388;6.196;2022-09-03T06:59:25;53161.16;;;-145.32;60.41
14041;BME280;7095;51.388;6.196;2022-09-03T07:01:54;53151.22;;;-145.32;61.04
14041;BME280;7095;51.388;6.196;2022-09-03T07:04:25;53137.28;;;-145.32;60.08
14041;BME280;7095;51.388;6.196;2022-09-03T07:06:56;53161.16;;;-145.32;59.44
14041;BME280;7095;51.388;6.196;2022-09-03T07:09:25;53147.22;;;-145.32;58.50
14041;BME280;7095;51.388;6.196;2022-09-03T07:11:54;53143.25;;;-145.32;58.08
14041;BME280;7095;51.388;6.196;2022-09-03T07:14:22;53147.22;;;-145.32;58.21
14041;BME280;7095;51.388;6.196;2022-09-03T07:16:53;53147.22;;;-145.32;57.71
14041;BME280;7095;51.388;6.196;2022-09-03T07:19:22;53133.31;;;-145.32;57.19
14041;BME280;7095;51.388;6.196;2022-09-03T07:21:50;53141.28;;;-145.32;56.79
14041;BME280;7095;51.388;6.196;2022-09-03T07:24:20;53161.16;;;-145.32;55.70
14041;BME280;7095;51.388;6.196;2022-09-03T07:26:50;53161.16;;;-145.32;55.90
14041;BME280;7095;51.388;6.196;2022-09-03T07:29:18;53131.34;;;-145.32;55.52
14041;BME280;7095;51.388;6.196;2022-09-03T07:31:48;53119.41;;;-145.32;54.44
14041;BME280;7095;51.388;6.196;2022-09-03T07:34:20;53117.41;;;-145.32;54.08
14041;BME280;7095;51.388;6.196;2022-09-03T07:36:53;53125.38;;;-145.32;54.14
14041;BME280;7095;51.388;6.196;2022-09-03T07:39:23;53145.25;;;-145.32;53.27
14041;BME280;7095;51.388;6.196;2022-09-03T07:41:52;53147.22;;;-145.32;52.13
14041;BME280;7095;51.388;6.196;2022-09-03T07:44:21;53137.28;;;-145.32;52.21
14041;BME280;7095;51.388;6.196;2022-09-03T07:46:50;53101.50;;;-145.32;52.40
14041;BME280;7095;51.388;6.196;2022-09-03T07:49:19;53093.56;;;-145.32;52.54
14041;BME280;7095;51.388;6.196;2022-09-03T07:51:49;53139.28;;;-145.32;52.14
14041;BME280;7095;51.388;6.196;2022-09-03T07:54:20;53103.50;;;-145.32;51.49
14041;BME280;7095;51.388;6.196;2022-09-03T07:56:51;53111.44;;;-145.32;51.23
14041;BME280;7095;51.388;6.196;2022-09-03T07:59:20;53113.44;;;-145.32;50.47
14041;BME280;7095;51.388;6.196;2022-09-03T08:01:50;53121.41;;;-145.32;50.70
14041;BME280;7095;51.388;6.196;2022-09-03T08:04:19;53095.56;;;-145.32;50.27
14041;BME280;7095;51.388;6.196;2022-09-03T08:06:49;53093.56;;;-145.32;49.63
14041;BME280;7095;51.388;6.196;2022-09-03T08:09:21;53105.50;;;-145.32;49.79
14041;BME280;7095;51.388;6.196;2022-09-03T08:11:52;53107.47;;;-145.32;49.74
14041;BME280;7095;51.388;6.196;2022-09-03T08:14:20;53099.53;;;-145.32;49.69
14041;BME280;7095;51.388;6.196;2022-09-03T08:16:49;53109.47;;;-145.32;49.27
14041;BME280;7095;51.388;6.196;2022-09-03T08:19:18;53131.34;;;-145.32;48.20
14041;BME280;7095;51.388;6.196;2022-09-03T08:21:47;53079.66;;;-145.32;48.08
14041;BME280;7095;51.388;6.196;2022-09-03T08:24:17;53083.63;;;-145.32;47.60
14041;BME280;7095;51.388;6.196;2022-09-03T08:26:47;53101.50;;;-145.32;47.38
14041;BME280;7095;51.388;6.196;2022-09-03T08:29:20;53107.47;;;-145.32;47.19
14041;BME280;7095;51.388;6.196;2022-09-03T08:31:49;53105.50;;;-145.32;47.42
14041;BME280;7095;51.388;6.196;2022-09-03T08:34:18;53099.53;;;-145.32;47.01
14041;BME280;7095;51.388;6.196;2022-09-03T08:36:47;53101.50;;;-145.32;46.34
14041;BME280;7095;51.388;6.196;2022-09-03T08:39:16;53063.75;;;-145.32;45.90
14041;BME280;7095;51.388;6.196;2022-09-03T08:42:18;53083.63;;;-145.32;45.33
14041;BME280;7095;51.388;6.196;2022-09-03T08:44:52;53065.72;;;-145.32;46.02
14041;BME280;7095;51.388;6.196;2022-09-03T08:47:26;53061.75;;;-145.32;46.11
14041;BME280;7095;51.388;6.196;2022-09-03T08:49:58;53061.75;;;-145.32;46.03
14041;BME280;7095;51.388;6.196;2022-09-03T08:52:30;53081.63;;;-145.32;45.46
14041;BME280;7095;51.388;6.196;2022-09-03T08:55:09;53093.56;;;-145.32;44.95
14041;BME280;7095;51.388;6.196;2022-09-03T08:57:44;53099.53;;;-145.32;44.67
14041;BME280;7095;51.388;6.196;2022-09-03T09:00:16;53089.59;;;-145.32;45.30
14041;BME280;7095;51.388;6.196;2022-09-03T09:03:01;53073.69;;;-145.32;44.32
14041;BME280;7095;51.388;6.196;2022-09-03T09:05:42;53085.63;;;-145.32;44.36
14041;BME280;7095;51.388;6.196;2022-09-03T09:08:19;53067.72;;;-145.32;44.35
14041;BME280;7095;51.388;6.196;2022-09-03T09:10:59;53071.69;;;-145.32;44.44
14041;BME280;7095;51.388;6.196;2022-09-03T09:13:37;53045.84;;;-145.32;44.51
14041;BME280;7095;51.388;6.196;2022-09-03T09:16:17;53079.66;;;-145.32;43.78
14041;BME280;7095;51.388;6.196;2022-09-03T09:18:58;53079.66;;;-145.32;43.64
14041;BME280;7095;51.388;6.196;2022-09-03T09:21:33;53081.63;;;-145.32;43.73
14041;BME280;7095;51.388;6.196;2022-09-03T09:24:10;53073.69;;;-145.32;44.33
14041;BME280;7095;51.388;6.196;2022-09-03T09:26:51;53089.59;;;-145.32;43.65
14041;BME280;7095;51.388;6.196;2022-09-03T09:29:21;53083.63;;;-145.32;43.01
14041;BME280;7095;51.388;6.196;2022-09-03T09:31:52;53061.75;;;-145.32;42.70
14041;BME280;7095;51.388;6.196;2022-09-03T09:34:21;53099.53;;;-145.32;42.65
14041;BME280;7095;51.388;6.196;2022-09-03T09:36:52;53081.63;;;-145.32;42.78
14041;BME280;7095;51.388;6.196;2022-09-03T09:39:22;53065.72;;;-145.32;42.56
14041;BME280;7095;51.388;6.196;2022-09-03T09:41:57;53065.72;;;-145.32;43.38
14041;BME280;7095;51.388;6.196;2022-09-03T09:44:26;53061.75;;;-145.32;43.10
14041;BME280;7095;51.388;6.196;2022-09-03T09:47:04;53083.63;;;-145.32;42.71
14041;BME280;7095;51.388;6.196;2022-09-03T09:49:37;53049.84;;;-145.32;42.37
14041;BME280;7095;51.388;6.196;2022-09-03T09:52:12;53073.69;;;-145.32;42.40
14041;BME280;7095;51.388;6.196;2022-09-03T09:54:43;53049.84;;;-145.32;42.18
14041;BME280;7095;51.388;6.196;2022-09-03T09:57:15;53059.78;;;-145.32;42.93
14041;BME280;7095;51.388;6.196;2022-09-03T09:59:45;53061.75;;;-145.32;42.55
14041;BME280;7095;51.388;6.196;2022-09-03T10:02:21;53075.66;;;-145.32;42.04
14041;BME280;7095;51.388;6.196;2022-09-03T10:04:52;53047.84;;;-145.32;42.05
14041;BME280;7095;51.388;6.196;2022-09-03T10:07:25;53053.81;;;-145.32;42.39
14041;BME280;7095;51.388;6.196;2022-09-03T10:10:06;53065.72;;;-145.32;41.44
14041;BME280;7095;51.388;6.196;2022-09-03T10:12:38;53057.78;;;-145.32;41.60
14041;BME280;7095;51.388;6.196;2022-09-03T10:15:20;53049.84;;;-145.32;40.71
14041;BME280;7095;51.388;6.196;2022-09-03T10:17:56;53049.84;;;-145.32;40.91
14041;BME280;7095;51.388;6.196;2022-09-03T10:20:35;53049.84;;;-145.32;40.67
14041;BME280;7095;51.388;6.196;2022-09-03T10:23:14;53057.78;;;-145.32;41.14
14041;BME280;7095;51.388;6.196;2022-09-03T10:25:58;53073.69;;;-145.32;40.38
14041;BME280;7095;51.388;6.196;2022-09-03T10:28:35;53067.72;;;-145.32;40.52
14041;BME280;7095;51.388;6.196;2022-09-03T10:31:16;53073.69;;;-145.32;40.48
14041;BME280;7095;51.388;6.196;2022-09-03T10:33:52;53057.78;;;-145.32;40.52
14041;BME280;7095;51.388;6.196;2022-09-03T10:36:24;53035.91;;;-145.32;40.00
14041;BME280;7095;51.388;6.196;2022-09-03T10:39:03;53045.84;;;-145.32;40.10
14041;BME280;7095;51.388;6.196;2022-09-03T10:41:42;53041.88;;;-145.32;39.04
14041;BME280;7095;51.388;6.196;2022-09-03T10:44:34;53041.88;;;-145.32;39.38
14041;BME280;7095;51.388;6.196;2022-09-03T10:47:17;53020.00;;;-145.32;39.33
14041;BME280;7095;51.388;6.196;2022-09-03T10:49:55;53041.88;;;-145.32;39.05
14041;BME280;7095;51.388;6.196;2022-09-03T10:52:33;53039.91;;;-145.32;39.38
14041;BME280;7095;51.388;6.196;2022-09-03T10:55:12;53014.06;;;-145.32;39.55
14041;BME280;7095;51.388;6.196;2022-09-03T10:57:51;53045.84;;;-145.32;38.53
14041;BME280;7095;51.388;6.196;2022-09-03T11:00:23;53065.72;;;-145.32;38.84
14041;BME280;7095;51.388;6.196;2022-09-03T11:03:15;53029.94;;;-145.32;38.98
14041;BME280;7095;51.388;6.196;2022-09-03T11:05:57;53018.03;;;-145.32;38.53
14041;BME280;7095;51.388;6.196;2022-09-03T11:08:31;53008.09;;;-145.32;37.86
14041;BME280;7095;51.388;6.196;2022-09-03T11:11:11;53022.00;;;-145.32;36.90
14041;BME280;7095;51.388;6.196;2022-09-03T11:13:44;53035.91;;;-145.32;37.22
14041;BME280;7095;51.388;6.196;2022-09-03T11:16:19;53020.00;;;-145.32;36.88
14041;BME280;7095;51.388;6.196;2022-09-03T11:18:54;53033.94;;;-145.32;37.16
14041;BME280;7095;51.388;6.196;2022-09-03T11:21:29;53025.97;;;-145.32;37.83
14041;BME280;7095;51.388;6.196;2022-09-03T11:24:04;53018.03;;;-145.32;37.25
14041;BME280;7095;51.388;6.196;2022-09-03T11:26:35;53022.00;;;-145.32;36.81
14041;BME280;7095;51.388;6.196;2022-09-03T11:29:09;53031.94;;;-145.32;36.82
14041;BME280;7095;51.388;6.196;2022-09-03T11:31:48;53024.00;;;-145.32;36.90
14041;BME280;7095;51.388;6.196;2022-09-03T11:34:28;53014.06;;;-145.32;37.46
14041;BME280;7095;51.388;6.196;2022-09-03T11:37:19;53008.09;;;-145.32;36.18
14041;BME280;7095;51.388;6.196;2022-09-03T11:39:57;53008.09;;;-145.32;36.63
14041;BME280;7095;51.388;6.196;2022-09-03T11:42:30;53018.03;;;-145.32;36.96
14041;BME280;7095;51.388;6.196;2022-09-03T11:45:13;53033.94;;;-145.32;35.97
14041;BME280;7095;51.388;6.196;2022-09-03T11:47:48;53024.00;;;-145.32;36.60
14041;BME280;7095;51.388;6.196;2022-09-03T11:50:20;52998.16;;;-145.32;36.52
14041;BME280;7095;51.388;6.196;2022-09-03T11:53:05;53000.13;;;-145.32;35.91
14041;BME280;7095;51.388;6.196;2022-09-03T11:55:51;53025.97;;;-145.32;36.62
14041;BME280;7095;51.388;6.196;2022-09-03T11:58:24;53035.91;;;-145.32;36.62
14041;BME280;7095;51.388;6.196;2022-09-03T12:00:54;52994.16;;;-145.32;36.78
14041;BME280;7095;51.388;6.196;2022-09-03T12:03:25;53024.00;;;-145.32;37.00
14041;BME280;7095;51.388;6.196;2022-09-03T12:06:10;53043.88;;;-145.32;36.34
14041;BME280;7095;51.388;6.196;2022-09-03T12:09:06;53018.03;;;-145.32;36.96
14041;BME280;7095;51.388;6.196;2022-09-03T12:11:47;53000.13;;;-145.32;36.27
14041;BME280;7095;51.388;6.196;2022-09-03T12:14:25;53002.13;;;-145.32;36.58
14041;BME280;7095;51.388;6.196;2022-09-03T12:17:07;53014.06;;;-145.32;36.09
14041;BME280;7095;51.388;6.196;2022-09-03T12:19:46;53018.03;;;-145.32;36.42
14041;BME280;7095;51.388;6.196;2022-09-03T12:22:20;53031.94;;;-145.32;36.60
14041;BME280;7095;51.388;6.196;2022-09-03T12:24:50;52988.22;;;-145.32;36.26
14041;BME280;7095;51.388;6.196;2022-09-03T12:27:20;53022.00;;;-145.32;35.90
14041;BME280;7095;51.388;6.196;2022-09-03T12:29:53;53025.97;;;-145.32;35.45
14041;BME280;7095;51.388;6.196;2022-09-03T12:32:27;53024.00;;;-145.32;35.17
14041;BME280;7095;51.388;6.196;2022-09-03T12:35:10;53012.06;;;-145.32;33.83
14041;BME280;7095;51.388;6.196;2022-09-03T12:37:41;53000.13;;;-145.32;33.92
14041;BME280;7095;51.388;6.196;2022-09-03T12:40:33;53035.91;;;-145.32;34.05
14041;BME280;7095;51.388;6.196;2022-09-03T12:43:26;53033.94;;;-145.32;33.58
14041;BME280;7095;51.388;6.196;2022-09-03T12:46:12;53045.84;;;-145.32;32.46
14041;BME280;7095;51.388;6.196;2022-09-03T12:48:51;53043.88;;;-145.32;31.95
14041;BME280;7095;51.388;6.196;2022-09-03T12:51:41;53037.91;;;-145.32;32.02
14041;BME280;7095;51.388;6.196;2022-09-03T12:54:21;53065.72;;;-145.32;31.44
14041;BME280;7095;51.388;6.196;2022-09-03T12:56:54;53010.06;;;-145.32;30.72
14041;BME280;7095;51.388;6.196;2022-09-03T12:59:26;53061.75;;;-145.32;30.58
14041;BME280;7095;51.388;6.196;2022-09-03T13:02:01;53065.72;;;-145.32;30.13
14041;BME280;7095;51.388;6.196;2022-09-03T13:04:33;53035.91;;;-145.32;30.32
14041;BME280;7095;51.388;6.196;2022-09-03T13:07:05;53053.81;;;-145.32;29.63
14041;BME280;7095;51.388;6.196;2022-09-03T13:09:37;53029.94;;;-145.32;29.52
14041;BME280;7095;51.388;6.196;2022-09-03T13:12:19;53014.06;;;-145.32;29.85
14041;BME280;7095;51.388;6.196;2022-09-03T13:14:48;53051.81;;;-145.32;29.85
14041;BME280;7095;51.388;6.196;2022-09-03T13:17:30;53045.84;;;-145.32;29.63
14041;BME280;7095;51.388;6.196;2022-09-03T13:20:20;53069.72;;;-145.32;29.56
14041;BME280;7095;51.388;6.196;2022-09-03T13:23:06;53037.91;;;-145.32;29.63
14041;BME280;7095;51.388;6.196;2022-09-03T13:25:47;53049.84;;;-145.32;29.08
14041;BME280;7095;51.388;6.196;2022-09-03T13:28:29;53071.69;;;-145.32;29.01
14041;BME280;7095;51.388;6.196;2022-09-03T13:31:07;53029.94;;;-145.32;28.34
14041;BME280;7095;51.388;6.196;2022-09-03T13:33:43;53049.84;;;-145.32;28.84